Provincetown III — WDB8185 — position and weather

sailwx.info

Track history (hours):
 
Tides and Currents Weather Stations Pressure Air Temp Water Temp Dewpoint Dewpoint Depression Visibility Wind Speed Wind Dir Waves Ship Positions

Provincetown III

Owner: MYSTIC FERRY LEASING LLC, BOSTON, MA. More information available from US FCC via Universal Licensing System and Coast Guard Vessel Documentation Center.

Last reported at 2016-Feb-11 21:11 UTC. Time now 2016-Feb-12 16:17 UTC.
Position N 18°24' W 064°37'.

Length 30 m; draft 2 m.

Type: Passenger vessel. MMSI: 366954420.

Date/timePositionNaut miles runAvg speedWind from/ knotsBaromVisibWave heightAir tempDewpointWater temp
2016-Feb-11 21:11N 18°24' W 064°37'1523.8
2016-Feb-11 20:34N 18°18' W 064°52'1 0.9
2016-Feb-11 19:09N 18°18' W 064°53'1524.8
2016-Feb-11 18:34N 18°23' W 064°39'7 3.6
2016-Feb-11 16:34N 18°22' W 064°46'0 0.1
2016-Feb-11 14:34N 18°22' W 064°46'9 7.8
2016-Feb-11 13:27N 18°24' W 064°37'7 3.5
2016-Feb-11 11:19N 18°23' W 064°45'8 0.6
2016-Feb-10 21:20N 18°25' W 064°37'16 7.7
2016-Feb-10 19:11N 18°18' W 064°52'1624.6
2016-Feb-10 18:33N 18°24' W 064°37'9 4.5
2016-Feb-10 16:33N 18°22' W 064°47'3 0.7
2016-Feb-10 11:34N 18°20' W 064°49'  
2016-Feb-07 22:13N 18°25' W 064°37'1624.7
2016-Feb-07 21:33N 18°18' W 064°52'1 0.3
2016-Feb-07 19:12N 18°18' W 064°53'1625.1
2016-Feb-07 18:33N 18°24' W 064°37'1414.1
2016-Feb-07 17:33N 18°18' W 064°51'0 0.4
2016-Feb-07 16:33N 18°19' W 064°51'1414.3
2016-Feb-07 15:32N 18°24' W 064°37'12 6.0
2016-Feb-07 13:33N 18°20' W 064°48'11 0.7
2016-Feb-06 21:11N 18°24' W 064°38'1523.9
2016-Feb-06 20:34N 18°18' W 064°52'1 0.6
2016-Feb-06 19:12N 18°18' W 064°53'1624.7
2016-Feb-06 18:34N 18°24' W 064°37'8 3.8
2016-Feb-06 16:34N 18°23' W 064°45'8 2.7
2016-Feb-06 13:24N 18°25' W 064°37'15 8.3
2016-Feb-06 11:33N 18°18' W 064°51'15 1.1
2016-Feb-05 22:04N 18°25' W 064°37'1325.0
2016-Feb-05 21:33N 18°20' W 064°49'4 1.7
2016-Feb-05 19:12N 18°18' W 064°53'1624.6
2016-Feb-05 18:33N 18°24' W 064°38'8 4.2
2016-Feb-05 16:33N 18°22' W 064°46'4 1.8
2016-Feb-05 14:33N 18°20' W 064°49'1210.5
2016-Feb-05 13:26N 18°24' W 064°37'11 6.0
2016-Feb-05 11:33N 18°20' W 064°49'12 0.9
2016-Feb-04 21:11N 18°25' W 064°37'1523.9
2016-Feb-04 20:34N 18°18' W 064°51'2 1.2
2016-Feb-04 19:12N 18°18' W 064°53'1625.0
2016-Feb-04 18:33N 18°24' W 064°37'8 3.9
2016-Feb-04 16:34N 18°22' W 064°45'6 3.2
2016-Feb-04 14:33N 18°19' W 064°51'1512.5
2016-Feb-04 13:23N 18°25' W 064°37'14 7.5
2016-Feb-04 11:34N 18°19' W 064°50'14 1.0
2016-Feb-03 21:17N 18°25' W 064°37'17 8.0
2016-Feb-03 19:12N 18°18' W 064°53'1625.1
2016-Feb-03 18:33N 18°24' W 064°37'7 3.5
2016-Feb-03 16:33N 18°22' W 064°45'2 1.1
2016-Feb-03 14:33N 18°22' W 064°47'6 6.1
2016-Feb-03 13:33N 18°23' W 064°40'9 4.4
2016-Feb-03 11:33N 18°20' W 064°49'  
Track history (hours):
 
Tides and Currents Weather Stations Pressure Air Temp Water Temp Dewpoint Dewpoint Depression Visibility Wind Speed Wind Dir Waves Ship Positions

Provincetown III

Owner: MYSTIC FERRY LEASING LLC, BOSTON, MA. More information available from US FCC via Universal Licensing System and Coast Guard Vessel Documentation Center.

Last reported at 2016-Feb-11 21:11 UTC. Time now 2016-Feb-12 16:17 UTC.
Position N 18°24' W 064°37'.

Length 30 m; draft 2 m.

Type: Passenger vessel. MMSI: 366954420.

Date/timePositionNaut miles runAvg speedWind from/ knotsBaromVisibWave heightAir tempDewpointWater temp
2016-Feb-11 21:11N 18°24' W 064°37'1523.8
2016-Feb-11 20:34N 18°18' W 064°52'1 0.9
2016-Feb-11 19:09N 18°18' W 064°53'1524.8
2016-Feb-11 18:34N 18°23' W 064°39'7 3.6
2016-Feb-11 16:34N 18°22' W 064°46'0 0.1
2016-Feb-11 14:34N 18°22' W 064°46'9 7.8
2016-Feb-11 13:27N 18°24' W 064°37'7 3.5
2016-Feb-11 11:19N 18°23' W 064°45'8 0.6
2016-Feb-10 21:20N 18°25' W 064°37'16 7.7
2016-Feb-10 19:11N 18°18' W 064°52'1624.6
2016-Feb-10 18:33N 18°24' W 064°37'9 4.5
2016-Feb-10 16:33N 18°22' W 064°47'3 0.7
2016-Feb-10 11:34N 18°20' W 064°49'  
2016-Feb-07 22:13N 18°25' W 064°37'1624.7
2016-Feb-07 21:33N 18°18' W 064°52'1 0.3
2016-Feb-07 19:12N 18°18' W 064°53'1625.1
2016-Feb-07 18:33N 18°24' W 064°37'1414.1
2016-Feb-07 17:33N 18°18' W 064°51'0 0.4
2016-Feb-07 16:33N 18°19' W 064°51'1414.3
2016-Feb-07 15:32N 18°24' W 064°37'12 6.0
2016-Feb-07 13:33N 18°20' W 064°48'11 0.7
2016-Feb-06 21:11N 18°24' W 064°38'1523.9
2016-Feb-06 20:34N 18°18' W 064°52'1 0.6
2016-Feb-06 19:12N 18°18' W 064°53'1624.7
2016-Feb-06 18:34N 18°24' W 064°37'8 3.8
2016-Feb-06 16:34N 18°23' W 064°45'8 2.7
2016-Feb-06 13:24N 18°25' W 064°37'15 8.3
2016-Feb-06 11:33N 18°18' W 064°51'15 1.1
2016-Feb-05 22:04N 18°25' W 064°37'1325.0
2016-Feb-05 21:33N 18°20' W 064°49'4 1.7
2016-Feb-05 19:12N 18°18' W 064°53'1624.6
2016-Feb-05 18:33N 18°24' W 064°38'8 4.2
2016-Feb-05 16:33N 18°22' W 064°46'4 1.8
2016-Feb-05 14:33N 18°20' W 064°49'1210.5
2016-Feb-05 13:26N 18°24' W 064°37'11 6.0
2016-Feb-05 11:33N 18°20' W 064°49'12 0.9
2016-Feb-04 21:11N 18°25' W 064°37'1523.9
2016-Feb-04 20:34N 18°18' W 064°51'2 1.2
2016-Feb-04 19:12N 18°18' W 064°53'1625.0
2016-Feb-04 18:33N 18°24' W 064°37'8 3.9
2016-Feb-04 16:34N 18°22' W 064°45'6 3.2
2016-Feb-04 14:33N 18°19' W 064°51'1512.5
2016-Feb-04 13:23N 18°25' W 064°37'14 7.5
2016-Feb-04 11:34N 18°19' W 064°50'14 1.0
2016-Feb-03 21:17N 18°25' W 064°37'17 8.0
2016-Feb-03 19:12N 18°18' W 064°53'1625.1
2016-Feb-03 18:33N 18°24' W 064°37'7 3.5
2016-Feb-03 16:33N 18°22' W 064°45'2 1.1
2016-Feb-03 14:33N 18°22' W 064°47'6 6.1
2016-Feb-03 13:33N 18°23' W 064°40'9 4.4
2016-Feb-03 11:33N 18°20' W 064°49'  

Dump ship's entire track history